sensor_id;sensor_type;location;lat;lon;timestamp;temperature;humidity
12853;DHT22;6495;51.808;7.478;2023-06-10T00:00:09;22.20;76.30
12853;DHT22;6495;51.808;7.478;2023-06-10T00:02:39;22.20;76.40
12853;DHT22;6495;51.808;7.478;2023-06-10T00:05:09;22.20;76.50
12853;DHT22;6495;51.808;7.478;2023-06-10T00:07:39;22.10;76.50
12853;DHT22;6495;51.808;7.478;2023-06-10T00:10:08;22.10;76.50
12853;DHT22;6495;51.808;7.478;2023-06-10T00:12:37;22.10;77.40
12853;DHT22;6495;51.808;7.478;2023-06-10T00:15:08;22.00;76.70
12853;DHT22;6495;51.808;7.478;2023-06-10T00:17:37;22.00;76.80
12853;DHT22;6495;51.808;7.478;2023-06-10T00:20:08;21.90;76.70
12853;DHT22;6495;51.808;7.478;2023-06-10T00:22:43;21.90;76.90
12853;DHT22;6495;51.808;7.478;2023-06-10T00:25:18;21.80;76.80
12853;DHT22;6495;51.808;7.478;2023-06-10T00:27:50;21.80;76.90
12853;DHT22;6495;51.808;7.478;2023-06-10T00:30:24;21.80;77.00
12853;DHT22;6495;51.808;7.478;2023-06-10T00:32:56;21.70;77.10
12853;DHT22;6495;51.808;7.478;2023-06-10T00:35:26;21.70;77.10
12853;DHT22;6495;51.808;7.478;2023-06-10T00:37:57;21.60;76.80
12853;DHT22;6495;51.808;7.478;2023-06-10T00:40:36;21.60;77.00
12853;DHT22;6495;51.808;7.478;2023-06-10T00:43:08;21.60;77.30
12853;DHT22;6495;51.808;7.478;2023-06-10T00:45:37;21.50;77.20
12853;DHT22;6495;51.808;7.478;2023-06-10T00:48:05;21.50;77.40
12853;DHT22;6495;51.808;7.478;2023-06-10T00:50:35;21.50;77.50
12853;DHT22;6495;51.808;7.478;2023-06-10T00:53:08;21.40;77.40
12853;DHT22;6495;51.808;7.478;2023-06-10T00:55:37;21.40;77.50
12853;DHT22;6495;51.808;7.478;2023-06-10T00:58:05;21.40;77.70
12853;DHT22;6495;51.808;7.478;2023-06-10T01:00:34;21.30;77.70
12853;DHT22;6495;51.808;7.478;2023-06-10T01:03:02;21.30;78.60
12853;DHT22;6495;51.808;7.478;2023-06-10T01:05:35;21.20;77.80
12853;DHT22;6495;51.808;7.478;2023-06-10T01:08:09;21.20;78.00
12853;DHT22;6495;51.808;7.478;2023-06-10T01:10:50;21.20;78.10
12853;DHT22;6495;51.808;7.478;2023-06-10T01:13:22;21.10;78.20
12853;DHT22;6495;51.808;7.478;2023-06-10T01:15:57;21.10;78.30
12853;DHT22;6495;51.808;7.478;2023-06-10T01:18:30;21.00;78.40
12853;DHT22;6495;51.808;7.478;2023-06-10T01:21:01;21.00;78.40
12853;DHT22;6495;51.808;7.478;2023-06-10T01:23:32;20.90;78.60
12853;DHT22;6495;51.808;7.478;2023-06-10T01:26:02;20.90;78.70
12853;DHT22;6495;51.808;7.478;2023-06-10T01:28:52;20.90;78.80
12853;DHT22;6495;51.808;7.478;2023-06-10T01:31:32;20.80;78.90
12853;DHT22;6495;51.808;7.478;2023-06-10T01:34:08;20.80;79.10
12853;DHT22;6495;51.808;7.478;2023-06-10T01:36:40;20.80;79.20
12853;DHT22;6495;51.808;7.478;2023-06-10T01:39:14;20.70;79.10
12853;DHT22;6495;51.808;7.478;2023-06-10T01:41:44;20.70;79.30
12853;DHT22;6495;51.808;7.478;2023-06-10T01:44:18;20.70;79.40
12853;DHT22;6495;51.808;7.478;2023-06-10T01:46:47;20.60;79.30
12853;DHT22;6495;51.808;7.478;2023-06-10T01:49:16;20.60;79.60
12853;DHT22;6495;51.808;7.478;2023-06-10T01:51:44;20.60;79.70
12853;DHT22;6495;51.808;7.478;2023-06-10T01:54:14;20.50;79.60
12853;DHT22;6495;51.808;7.478;2023-06-10T01:56:43;20.50;79.80
12853;DHT22;6495;51.808;7.478;2023-06-10T01:59:11;20.40;79.90
12853;DHT22;6495;51.808;7.478;2023-06-10T02:01:42;20.40;80.20
12853;DHT22;6495;51.808;7.478;2023-06-10T02:04:13;20.40;80.20
12853;DHT22;6495;51.808;7.478;2023-06-10T02:06:42;20.30;80.20
12853;DHT22;6495;51.808;7.478;2023-06-10T02:09:10;20.30;80.40
12853;DHT22;6495;51.808;7.478;2023-06-10T02:11:40;20.30;80.50
12853;DHT22;6495;51.808;7.478;2023-06-10T02:14:09;20.20;80.40
12853;DHT22;6495;51.808;7.478;2023-06-10T02:16:40;20.20;80.70
12853;DHT22;6495;51.808;7.478;2023-06-10T02:19:14;20.20;81.00
12853;DHT22;6495;51.808;7.478;2023-06-10T02:21:42;20.10;81.00
12853;DHT22;6495;51.808;7.478;2023-06-10T02:24:10;20.10;82.00
12853;DHT22;6495;51.808;7.478;2023-06-10T02:26:41;20.10;81.30
12853;DHT22;6495;51.808;7.478;2023-06-10T02:29:10;20.00;81.30
12853;DHT22;6495;51.808;7.478;2023-06-10T02:31:38;20.00;81.40
12853;DHT22;6495;51.808;7.478;2023-06-10T02:34:08;20.00;81.50
12853;DHT22;6495;51.808;7.478;2023-06-10T02:36:37;19.90;81.50
12853;DHT22;6495;51.808;7.478;2023-06-10T02:39:07;19.90;81.60
12853;DHT22;6495;51.808;7.478;2023-06-10T02:41:35;19.90;81.80
12853;DHT22;6495;51.808;7.478;2023-06-10T02:44:06;19.80;81.80
12853;DHT22;6495;51.808;7.478;2023-06-10T02:46:37;19.80;82.00
12853;DHT22;6495;51.808;7.478;2023-06-10T02:49:08;19.80;82.20
12853;DHT22;6495;51.808;7.478;2023-06-10T02:51:37;19.70;82.20
12853;DHT22;6495;51.808;7.478;2023-06-10T02:54:07;19.70;82.30
12853;DHT22;6495;51.808;7.478;2023-06-10T02:56:37;19.70;82.50
12853;DHT22;6495;51.808;7.478;2023-06-10T02:59:16;19.70;82.60
12853;DHT22;6495;51.808;7.478;2023-06-10T03:01:46;19.60;82.70
12853;DHT22;6495;51.808;7.478;2023-06-10T03:04:14;19.60;82.80
12853;DHT22;6495;51.808;7.478;2023-06-10T03:06:52;19.60;82.90
12853;DHT22;6495;51.808;7.478;2023-06-10T03:09:29;19.60;82.90
12853;DHT22;6495;51.808;7.478;2023-06-10T03:11:59;19.60;83.00
12853;DHT22;6495;51.808;7.478;2023-06-10T03:14:35;19.50;83.10
12853;DHT22;6495;51.808;7.478;2023-06-10T03:17:04;19.50;83.10
12853;DHT22;6495;51.808;7.478;2023-06-10T03:19:35;19.50;83.30
12853;DHT22;6495;51.808;7.478;2023-06-10T03:22:09;19.50;83.40
12853;DHT22;6495;51.808;7.478;2023-06-10T03:24:45;19.50;83.50
12853;DHT22;6495;51.808;7.478;2023-06-10T03:27:17;19.40;83.60
12853;DHT22;6495;51.808;7.478;2023-06-10T03:29:51;19.40;83.70
12853;DHT22;6495;51.808;7.478;2023-06-10T03:32:19;19.40;83.70
12853;DHT22;6495;51.808;7.478;2023-06-10T03:34:48;19.40;83.80
12853;DHT22;6495;51.808;7.478;2023-06-10T03:37:18;19.40;84.10
12853;DHT22;6495;51.808;7.478;2023-06-10T03:39:48;19.30;83.90
12853;DHT22;6495;51.808;7.478;2023-06-10T03:42:17;19.30;84.00
12853;DHT22;6495;51.808;7.478;2023-06-10T03:44:46;19.30;84.10
12853;DHT22;6495;51.808;7.478;2023-06-10T03:47:15;19.30;84.30
12853;DHT22;6495;51.808;7.478;2023-06-10T03:49:44;19.30;84.30
12853;DHT22;6495;51.808;7.478;2023-06-10T03:52:12;19.20;84.40
12853;DHT22;6495;51.808;7.478;2023-06-10T03:54:41;19.20;84.40
12853;DHT22;6495;51.808;7.478;2023-06-10T03:57:11;19.20;84.70
12853;DHT22;6495;51.808;7.478;2023-06-10T03:59:39;19.20;85.40
12853;DHT22;6495;51.808;7.478;2023-06-10T04:02:08;19.20;84.90
12853;DHT22;6495;51.808;7.478;2023-06-10T04:04:38;19.10;84.80
12853;DHT22;6495;51.808;7.478;2023-06-10T04:07:06;19.10;85.00
12853;DHT22;6495;51.808;7.478;2023-06-10T04:09:36;19.10;85.10
12853;DHT22;6495;51.808;7.478;2023-06-10T04:12:05;19.10;85.20
12853;DHT22;6495;51.808;7.478;2023-06-10T04:14:35;19.10;85.30
12853;DHT22;6495;51.808;7.478;2023-06-10T04:17:05;19.10;85.60
12853;DHT22;6495;51.808;7.478;2023-06-10T04:19:37;19.00;85.50
12853;DHT22;6495;51.808;7.478;2023-06-10T04:22:06;19.10;85.50
12853;DHT22;6495;51.808;7.478;2023-06-10T04:24:34;19.10;85.70
12853;DHT22;6495;51.808;7.478;2023-06-10T04:27:03;19.10;85.80
12853;DHT22;6495;51.808;7.478;2023-06-10T04:29:32;19.00;85.90
12853;DHT22;6495;51.808;7.478;2023-06-10T04:32:00;19.10;86.10
12853;DHT22;6495;51.808;7.478;2023-06-10T04:34:31;19.10;86.30
12853;DHT22;6495;51.808;7.478;2023-06-10T04:37:03;19.10;86.50
12853;DHT22;6495;51.808;7.478;2023-06-10T04:39:32;19.10;86.60
12853;DHT22;6495;51.808;7.478;2023-06-10T04:42:04;19.10;86.80
12853;DHT22;6495;51.808;7.478;2023-06-10T04:44:33;19.10;87.00
12853;DHT22;6495;51.808;7.478;2023-06-10T04:47:01;19.10;87.20
12853;DHT22;6495;51.808;7.478;2023-06-10T04:49:30;19.10;87.20
12853;DHT22;6495;51.808;7.478;2023-06-10T04:52:03;19.10;87.50
12853;DHT22;6495;51.808;7.478;2023-06-10T04:54:36;19.10;87.60
12853;DHT22;6495;51.808;7.478;2023-06-10T04:57:06;19.10;87.80
12853;DHT22;6495;51.808;7.478;2023-06-10T04:59:35;19.10;88.40
12853;DHT22;6495;51.808;7.478;2023-06-10T05:02:05;19.10;88.20
12853;DHT22;6495;51.808;7.478;2023-06-10T05:04:33;19.10;88.10
12853;DHT22;6495;51.808;7.478;2023-06-10T05:07:03;19.10;88.00
12853;DHT22;6495;51.808;7.478;2023-06-10T05:09:32;19.20;88.20
12853;DHT22;6495;51.808;7.478;2023-06-10T05:12:00;19.20;88.30
12853;DHT22;6495;51.808;7.478;2023-06-10T05:14:29;19.20;88.60
12853;DHT22;6495;51.808;7.478;2023-06-10T05:16:58;19.20;88.70
12853;DHT22;6495;51.808;7.478;2023-06-10T05:19:26;19.20;88.70
12853;DHT22;6495;51.808;7.478;2023-06-10T05:21:55;19.20;88.80
12853;DHT22;6495;51.808;7.478;2023-06-10T05:24:24;19.20;88.60
12853;DHT22;6495;51.808;7.478;2023-06-10T05:26:53;19.30;88.70
12853;DHT22;6495;51.808;7.478;2023-06-10T05:29:21;19.30;89.10
12853;DHT22;6495;51.808;7.478;2023-06-10T05:31:49;19.30;89.60
12853;DHT22;6495;51.808;7.478;2023-06-10T05:34:18;19.40;88.90
12853;DHT22;6495;51.808;7.478;2023-06-10T05:36:46;19.40;89.00
12853;DHT22;6495;51.808;7.478;2023-06-10T05:39:15;19.40;89.20
12853;DHT22;6495;51.808;7.478;2023-06-10T05:41:46;19.50;89.50
12853;DHT22;6495;51.808;7.478;2023-06-10T05:44:14;19.50;89.40
12853;DHT22;6495;51.808;7.478;2023-06-10T05:46:43;19.50;89.50
12853;DHT22;6495;51.808;7.478;2023-06-10T05:49:11;19.60;89.50
12853;DHT22;6495;51.808;7.478;2023-06-10T05:51:42;19.60;89.50
12853;DHT22;6495;51.808;7.478;2023-06-10T05:54:10;19.70;89.80
12853;DHT22;6495;51.808;7.478;2023-06-10T05:56:39;19.80;89.50
12853;DHT22;6495;51.808;7.478;2023-06-10T05:59:08;19.80;89.60
12853;DHT22;6495;51.808;7.478;2023-06-10T06:01:37;19.90;89.60
12853;DHT22;6495;51.808;7.478;2023-06-10T06:04:06;20.00;89.50
12853;DHT22;6495;51.808;7.478;2023-06-10T06:06:35;20.10;89.30
12853;DHT22;6495;51.808;7.478;2023-06-10T06:09:03;20.10;89.20
12853;DHT22;6495;51.808;7.478;2023-06-10T06:11:33;20.20;89.30
12853;DHT22;6495;51.808;7.478;2023-06-10T06:14:08;20.30;88.90
12853;DHT22;6495;51.808;7.478;2023-06-10T06:16:36;20.40;88.60
12853;DHT22;6495;51.808;7.478;2023-06-10T06:19:08;20.40;88.80
12853;DHT22;6495;51.808;7.478;2023-06-10T06:21:38;20.50;88.60
12853;DHT22;6495;51.808;7.478;2023-06-10T06:24:07;20.60;88.50
12853;DHT22;6495;51.808;7.478;2023-06-10T06:26:35;20.60;88.10
12853;DHT22;6495;51.808;7.478;2023-06-10T06:29:03;20.70;88.10
12853;DHT22;6495;51.808;7.478;2023-06-10T06:31:33;20.70;88.20
12853;DHT22;6495;51.808;7.478;2023-06-10T06:34:02;20.80;88.20
12853;DHT22;6495;51.808;7.478;2023-06-10T06:36:30;20.90;88.00
12853;DHT22;6495;51.808;7.478;2023-06-10T06:39:03;21.00;87.80
12853;DHT22;6495;51.808;7.478;2023-06-10T06:41:32;21.00;87.80
12853;DHT22;6495;51.808;7.478;2023-06-10T06:44:01;21.10;87.60
12853;DHT22;6495;51.808;7.478;2023-06-10T06:46:33;21.20;87.40
12853;DHT22;6495;51.808;7.478;2023-06-10T06:49:02;21.20;87.30
12853;DHT22;6495;51.808;7.478;2023-06-10T06:51:32;21.30;87.40
12853;DHT22;6495;51.808;7.478;2023-06-10T06:54:11;21.40;87.30
12853;DHT22;6495;51.808;7.478;2023-06-10T06:56:42;21.50;87.30
12853;DHT22;6495;51.808;7.478;2023-06-10T06:59:10;21.60;87.50
12853;DHT22;6495;51.808;7.478;2023-06-10T07:01:42;21.70;87.40
12853;DHT22;6495;51.808;7.478;2023-06-10T07:04:10;21.80;87.00
12853;DHT22;6495;51.808;7.478;2023-06-10T07:06:38;21.90;86.80
12853;DHT22;6495;51.808;7.478;2023-06-10T07:09:07;22.00;86.50
12853;DHT22;6495;51.808;7.478;2023-06-10T07:11:36;22.10;86.30
12853;DHT22;6495;51.808;7.478;2023-06-10T07:14:04;22.20;86.20
12853;DHT22;6495;51.808;7.478;2023-06-10T07:16:32;22.30;86.30
12853;DHT22;6495;51.808;7.478;2023-06-10T07:19:02;22.40;86.00
12853;DHT22;6495;51.808;7.478;2023-06-10T07:21:32;22.40;85.60
12853;DHT22;6495;51.808;7.478;2023-06-10T07:24:03;22.50;85.60
12853;DHT22;6495;51.808;7.478;2023-06-10T07:26:32;22.60;85.30
12853;DHT22;6495;51.808;7.478;2023-06-10T07:29:01;22.70;85.10
12853;DHT22;6495;51.808;7.478;2023-06-10T07:31:29;22.80;85.50
12853;DHT22;6495;51.808;7.478;2023-06-10T07:34:01;23.00;85.60
12853;DHT22;6495;51.808;7.478;2023-06-10T07:36:38;23.10;85.50
12853;DHT22;6495;51.808;7.478;2023-06-10T07:39:10;23.20;84.90
12853;DHT22;6495;51.808;7.478;2023-06-10T07:41:39;23.30;84.80
12853;DHT22;6495;51.808;7.478;2023-06-10T07:44:12;23.40;84.00
12853;DHT22;6495;51.808;7.478;2023-06-10T07:46:41;23.40;84.20
12853;DHT22;6495;51.808;7.478;2023-06-10T07:49:20;23.60;84.70
12853;DHT22;6495;51.808;7.478;2023-06-10T07:51:49;23.70;83.90
12853;DHT22;6495;51.808;7.478;2023-06-10T07:54:18;23.80;83.80
12853;DHT22;6495;51.808;7.478;2023-06-10T07:56:49;23.90;83.80
12853;DHT22;6495;51.808;7.478;2023-06-10T07:59:22;24.10;83.70
12853;DHT22;6495;51.808;7.478;2023-06-10T08:02:08;24.20;83.70
12853;DHT22;6495;51.808;7.478;2023-06-10T08:05:47;24.30;83.80
12853;DHT22;6495;51.808;7.478;2023-06-10T08:11:21;24.60;83.30
12853;DHT22;6495;51.808;7.478;2023-06-10T08:13:55;24.60;82.60
12853;DHT22;6495;51.808;7.478;2023-06-10T08:16:38;24.70;82.90
12853;DHT22;6495;51.808;7.478;2023-06-10T08:19:23;24.80;82.80
12853;DHT22;6495;51.808;7.478;2023-06-10T08:22:07;24.90;82.70
12853;DHT22;6495;51.808;7.478;2023-06-10T08:24:42;25.00;82.10
12853;DHT22;6495;51.808;7.478;2023-06-10T08:27:15;25.10;82.20
12853;DHT22;6495;51.808;7.478;2023-06-10T08:29:43;25.20;82.30
12853;DHT22;6495;51.808;7.478;2023-06-10T08:32:12;25.30;81.00
12853;DHT22;6495;51.808;7.478;2023-06-10T08:34:40;25.40;80.70
12853;DHT22;6495;51.808;7.478;2023-06-10T08:37:10;25.40;80.60
12853;DHT22;6495;51.808;7.478;2023-06-10T08:39:39;25.40;80.30
12853;DHT22;6495;51.808;7.478;2023-06-10T08:42:22;25.50;80.30
12853;DHT22;6495;51.808;7.478;2023-06-10T08:44:57;25.60;79.80
12853;DHT22;6495;51.808;7.478;2023-06-10T08:47:39;25.70;79.50
12853;DHT22;6495;51.808;7.478;2023-06-10T08:50:28;25.70;79.20
12853;DHT22;6495;51.808;7.478;2023-06-10T08:53:05;25.80;79.00
12853;DHT22;6495;51.808;7.478;2023-06-10T08:55:37;25.80;78.60
12853;DHT22;6495;51.808;7.478;2023-06-10T08:58:11;25.90;78.80
12853;DHT22;6495;51.808;7.478;2023-06-10T09:00:44;26.00;78.40
12853;DHT22;6495;51.808;7.478;2023-06-10T09:03:20;26.10;78.60
12853;DHT22;6495;51.808;7.478;2023-06-10T09:05:52;26.10;78.30
12853;DHT22;6495;51.808;7.478;2023-06-10T09:08:23;26.20;78.00
12853;DHT22;6495;51.808;7.478;2023-06-10T09:10:54;26.20;77.90
12853;DHT22;6495;51.808;7.478;2023-06-10T09:13:41;26.30;77.40
12853;DHT22;6495;51.808;7.478;2023-06-10T09:16:14;26.40;77.10
12853;DHT22;6495;51.808;7.478;2023-06-10T09:18:56;26.50;76.80
12853;DHT22;6495;51.808;7.478;2023-06-10T09:21:41;26.60;76.70
12853;DHT22;6495;51.808;7.478;2023-06-10T09:24:41;26.60;76.10
12853;DHT22;6495;51.808;7.478;2023-06-10T09:27:30;26.60;75.70
12853;DHT22;6495;51.808;7.478;2023-06-10T09:30:38;26.60;75.20
12853;DHT22;6495;51.808;7.478;2023-06-10T09:33:48;26.70;75.50
12853;DHT22;6495;51.808;7.478;2023-06-10T09:36:47;26.80;75.40
12853;DHT22;6495;51.808;7.478;2023-06-10T09:39:30;26.90;75.20
12853;DHT22;6495;51.808;7.478;2023-06-10T09:42:22;27.00;75.40
12853;DHT22;6495;51.808;7.478;2023-06-10T09:45:07;27.10;74.60
12853;DHT22;6495;51.808;7.478;2023-06-10T09:47:53;27.10;75.20
12853;DHT22;6495;51.808;7.478;2023-06-10T09:50:41;27.30;75.50
12853;DHT22;6495;51.808;7.478;2023-06-10T09:53:17;27.50;75.20
12853;DHT22;6495;51.808;7.478;2023-06-10T09:55:52;27.50;74.10
12853;DHT22;6495;51.808;7.478;2023-06-10T09:58:35;27.60;73.90
12853;DHT22;6495;51.808;7.478;2023-06-10T10:01:05;27.60;73.00
12853;DHT22;6495;51.808;7.478;2023-06-10T10:03:44;27.60;73.20
12853;DHT22;6495;51.808;7.478;2023-06-10T10:06:19;27.60;72.90
12853;DHT22;6495;51.808;7.478;2023-06-10T10:08:59;27.70;73.10
12853;DHT22;6495;51.808;7.478;2023-06-10T10:11:32;27.70;73.10
12853;DHT22;6495;51.808;7.478;2023-06-10T10:14:11;27.80;73.10
12853;DHT22;6495;51.808;7.478;2023-06-10T10:16:46;27.80;73.30
12853;DHT22;6495;51.808;7.478;2023-06-10T10:19:23;27.90;72.80
12853;DHT22;6495;51.808;7.478;2023-06-10T10:22:08;27.90;72.60
12853;DHT22;6495;51.808;7.478;2023-06-10T10:24:45;28.00;72.20
12853;DHT22;6495;51.808;7.478;2023-06-10T10:27:35;28.00;71.90
12853;DHT22;6495;51.808;7.478;2023-06-10T10:30:10;28.10;72.10
12853;DHT22;6495;51.808;7.478;2023-06-10T10:32:45;28.10;71.70
12853;DHT22;6495;51.808;7.478;2023-06-10T10:35:23;28.20;71.10
12853;DHT22;6495;51.808;7.478;2023-06-10T10:37:53;28.20;70.90
12853;DHT22;6495;51.808;7.478;2023-06-10T10:40:23;28.30;70.50
12853;DHT22;6495;51.808;7.478;2023-06-10T10:42:58;28.40;70.70
12853;DHT22;6495;51.808;7.478;2023-06-10T10:45:33;28.40;70.70
12853;DHT22;6495;51.808;7.478;2023-06-10T10:48:06;28.50;69.70
12853;DHT22;6495;51.808;7.478;2023-06-10T10:50:39;28.50;68.60
12853;DHT22;6495;51.808;7.478;2023-06-10T10:53:08;28.50;68.90
12853;DHT22;6495;51.808;7.478;2023-06-10T10:56:08;28.60;68.70
12853;DHT22;6495;51.808;7.478;2023-06-10T10:58:41;28.70;68.50
12853;DHT22;6495;51.808;7.478;2023-06-10T11:01:13;28.70;68.30
12853;DHT22;6495;51.808;7.478;2023-06-10T11:03:49;28.80;68.20
12853;DHT22;6495;51.808;7.478;2023-06-10T11:06:33;28.90;67.90
12853;DHT22;6495;51.808;7.478;2023-06-10T11:10:05;29.00;66.70
12853;DHT22;6495;51.808;7.478;2023-06-10T11:13:02;29.10;67.10
12853;DHT22;6495;51.808;7.478;2023-06-10T11:16:01;29.10;66.90
12853;DHT22;6495;51.808;7.478;2023-06-10T11:18:53;29.20;67.10
12853;DHT22;6495;51.808;7.478;2023-06-10T11:21:25;29.30;67.00
12853;DHT22;6495;51.808;7.478;2023-06-10T11:23:58;29.40;67.00
12853;DHT22;6495;51.808;7.478;2023-06-10T11:26:44;29.40;66.50
12853;DHT22;6495;51.808;7.478;2023-06-10T11:29:17;29.40;66.00
12853;DHT22;6495;51.808;7.478;2023-06-10T11:31:52;29.50;65.90
12853;DHT22;6495;51.808;7.478;2023-06-10T11:34:34;29.50;65.90
12853;DHT22;6495;51.808;7.478;2023-06-10T11:37:08;29.50;65.60
12853;DHT22;6495;51.808;7.478;2023-06-10T11:39:38;29.60;65.60
12853;DHT22;6495;51.808;7.478;2023-06-10T11:42:07;29.60;65.20
12853;DHT22;6495;51.808;7.478;2023-06-10T11:44:37;29.60;64.60
12853;DHT22;6495;51.808;7.478;2023-06-10T11:47:06;29.50;65.00
12853;DHT22;6495;51.808;7.478;2023-06-10T11:49:42;29.50;63.90
12853;DHT22;6495;51.808;7.478;2023-06-10T11:52:14;29.50;63.90
12853;DHT22;6495;51.808;7.478;2023-06-10T11:54:53;29.50;63.90
12853;DHT22;6495;51.808;7.478;2023-06-10T11:58:11;29.60;63.20
12853;DHT22;6495;51.808;7.478;2023-06-10T12:01:20;29.70;63.50
12853;DHT22;6495;51.808;7.478;2023-06-10T12:04:34;29.80;63.90
12853;DHT22;6495;51.808;7.478;2023-06-10T12:07:44;29.80;63.40
12853;DHT22;6495;51.808;7.478;2023-06-10T12:11:22;29.80;63.70
12853;DHT22;6495;51.808;7.478;2023-06-10T12:18:00;29.90;62.60
12853;DHT22;6495;51.808;7.478;2023-06-10T12:29:16;29.90;62.90
12853;DHT22;6495;51.808;7.478;2023-06-10T12:32:04;30.10;63.10
12853;DHT22;6495;51.808;7.478;2023-06-10T12:34:36;30.20;63.50
12853;DHT22;6495;51.808;7.478;2023-06-10T12:37:09;30.30;63.30
12853;DHT22;6495;51.808;7.478;2023-06-10T12:39:52;30.40;63.00
12853;DHT22;6495;51.808;7.478;2023-06-10T12:42:22;30.40;62.30
12853;DHT22;6495;51.808;7.478;2023-06-10T12:48:08;30.50;61.30
12853;DHT22;6495;51.808;7.478;2023-06-10T12:50:53;30.50;61.30
12853;DHT22;6495;51.808;7.478;2023-06-10T12:53:32;30.60;60.60
12853;DHT22;6495;51.808;7.478;2023-06-10T12:57:13;30.50;61.00
12853;DHT22;6495;51.808;7.478;2023-06-10T13:02:20;30.60;61.20
12853;DHT22;6495;51.808;7.478;2023-06-10T13:04:55;30.60;60.90
12853;DHT22;6495;51.808;7.478;2023-06-10T13:07:33;30.60;60.70
12853;DHT22;6495;51.808;7.478;2023-06-10T13:10:01;30.70;60.90
12853;DHT22;6495;51.808;7.478;2023-06-10T13:12:30;30.60;60.60
12853;DHT22;6495;51.808;7.478;2023-06-10T13:15:42;30.70;60.50
12853;DHT22;6495;51.808;7.478;2023-06-10T13:18:14;30.70;59.90
12853;DHT22;6495;51.808;7.478;2023-06-10T13:20:47;30.80;59.90
12853;DHT22;6495;51.808;7.478;2023-06-10T13:23:19;30.80;59.70
12853;DHT22;6495;51.808;7.478;2023-06-10T13:25:47;30.80;59.40
12853;DHT22;6495;51.808;7.478;2023-06-10T13:28:36;30.80;59.30
12853;DHT22;6495;51.808;7.478;2023-06-10T13:31:08;30.80;59.20
12853;DHT22;6495;51.808;7.478;2023-06-10T13:33:37;30.80;59.20
12853;DHT22;6495;51.808;7.478;2023-06-10T13:36:06;30.80;59.10
12853;DHT22;6495;51.808;7.478;2023-06-10T13:38:42;30.80;59.10
12853;DHT22;6495;51.808;7.478;2023-06-10T13:41:12;30.80;59.00
12853;DHT22;6495;51.808;7.478;2023-06-10T13:43:49;30.80;58.80
12853;DHT22;6495;51.808;7.478;2023-06-10T13:46:24;30.80;58.70
12853;DHT22;6495;51.808;7.478;2023-06-10T13:48:55;30.80;58.80
12853;DHT22;6495;51.808;7.478;2023-06-10T13:51:37;30.80;59.00
12853;DHT22;6495;51.808;7.478;2023-06-10T13:54:05;30.80;58.50
12853;DHT22;6495;51.808;7.478;2023-06-10T13:56:44;30.90;58.70
12853;DHT22;6495;51.808;7.478;2023-06-10T13:59:28;30.90;58.60
12853;DHT22;6495;51.808;7.478;2023-06-10T14:02:01;31.00;58.60
12853;DHT22;6495;51.808;7.478;2023-06-10T14:04:55;31.00;58.30
12853;DHT22;6495;51.808;7.478;2023-06-10T14:07:23;31.00;57.80
12853;DHT22;6495;51.808;7.478;2023-06-10T14:10:04;31.00;58.00
12853;DHT22;6495;51.808;7.478;2023-06-10T14:12:41;31.00;58.00
12853;DHT22;6495;51.808;7.478;2023-06-10T14:15:17;31.10;58.10
12853;DHT22;6495;51.808;7.478;2023-06-10T14:17:48;31.10;57.80
12853;DHT22;6495;51.808;7.478;2023-06-10T14:20:25;31.10;57.70
12853;DHT22;6495;51.808;7.478;2023-06-10T14:22:58;31.20;57.50
12853;DHT22;6495;51.808;7.478;2023-06-10T14:25:26;31.10;57.30
12853;DHT22;6495;51.808;7.478;2023-06-10T14:27:54;31.10;57.30
12853;DHT22;6495;51.808;7.478;2023-06-10T14:30:23;31.20;57.60
12853;DHT22;6495;51.808;7.478;2023-06-10T14:32:57;31.20;57.60
12853;DHT22;6495;51.808;7.478;2023-06-10T14:35:44;31.30;57.30
12853;DHT22;6495;51.808;7.478;2023-06-10T14:38:24;31.30;57.10
12853;DHT22;6495;51.808;7.478;2023-06-10T14:40:56;31.40;57.50
12853;DHT22;6495;51.808;7.478;2023-06-10T14:43:28;31.40;57.60
12853;DHT22;6495;51.808;7.478;2023-06-10T14:46:00;31.50;57.50
12853;DHT22;6495;51.808;7.478;2023-06-10T14:48:42;31.50;57.30
12853;DHT22;6495;51.808;7.478;2023-06-10T14:51:12;31.50;57.30
12853;DHT22;6495;51.808;7.478;2023-06-10T14:53:43;31.60;57.40
12853;DHT22;6495;51.808;7.478;2023-06-10T14:56:16;31.60;57.40
12853;DHT22;6495;51.808;7.478;2023-06-10T14:58:45;31.60;57.40
12853;DHT22;6495;51.808;7.478;2023-06-10T15:01:16;31.70;57.40
12853;DHT22;6495;51.808;7.478;2023-06-10T15:03:52;31.80;57.30
12853;DHT22;6495;51.808;7.478;2023-06-10T15:06:25;31.80;56.90
12853;DHT22;6495;51.808;7.478;2023-06-10T15:09:00;31.70;56.60
12853;DHT22;6495;51.808;7.478;2023-06-10T15:11:29;31.70;56.50
12853;DHT22;6495;51.808;7.478;2023-06-10T15:14:44;31.70;56.50
12853;DHT22;6495;51.808;7.478;2023-06-10T15:17:28;31.70;56.40
12853;DHT22;6495;51.808;7.478;2023-06-10T15:20:54;31.70;56.20
12853;DHT22;6495;51.808;7.478;2023-06-10T15:23:39;31.70;56.40
12853;DHT22;6495;51.808;7.478;2023-06-10T15:26:17;31.70;56.70
12853;DHT22;6495;51.808;7.478;2023-06-10T15:28:51;31.80;56.10
12853;DHT22;6495;51.808;7.478;2023-06-10T15:31:22;31.80;56.10
12853;DHT22;6495;51.808;7.478;2023-06-10T15:33:55;31.80;56.10
12853;DHT22;6495;51.808;7.478;2023-06-10T15:36:37;31.80;56.00
12853;DHT22;6495;51.808;7.478;2023-06-10T15:39:07;31.90;55.90
12853;DHT22;6495;51.808;7.478;2023-06-10T15:41:35;31.80;55.50
12853;DHT22;6495;51.808;7.478;2023-06-10T15:44:23;31.80;55.60
12853;DHT22;6495;51.808;7.478;2023-06-10T15:47:13;31.90;55.60
12853;DHT22;6495;51.808;7.478;2023-06-10T15:49:46;31.90;55.80
12853;DHT22;6495;51.808;7.478;2023-06-10T15:52:27;32.00;55.70
12853;DHT22;6495;51.808;7.478;2023-06-10T15:55:06;32.00;55.40
12853;DHT22;6495;51.808;7.478;2023-06-10T15:57:37;31.90;54.40
12853;DHT22;6495;51.808;7.478;2023-06-10T16:00:15;31.80;55.20
12853;DHT22;6495;51.808;7.478;2023-06-10T16:02:48;31.80;55.10
12853;DHT22;6495;51.808;7.478;2023-06-10T16:05:16;31.70;55.30
12853;DHT22;6495;51.808;7.478;2023-06-10T16:07:56;31.70;55.50
12853;DHT22;6495;51.808;7.478;2023-06-10T16:10:51;31.80;55.50
12853;DHT22;6495;51.808;7.478;2023-06-10T16:13:22;31.80;55.40
12853;DHT22;6495;51.808;7.478;2023-06-10T16:15:54;31.70;55.20
12853;DHT22;6495;51.808;7.478;2023-06-10T16:18:27;31.70;55.30
12853;DHT22;6495;51.808;7.478;2023-06-10T16:21:01;31.80;55.20
12853;DHT22;6495;51.808;7.478;2023-06-10T16:23:53;31.80;55.10
12853;DHT22;6495;51.808;7.478;2023-06-10T16:26:35;31.80;55.10
12853;DHT22;6495;51.808;7.478;2023-06-10T16:29:25;31.80;55.00
12853;DHT22;6495;51.808;7.478;2023-06-10T16:31:59;31.80;55.00
12853;DHT22;6495;51.808;7.478;2023-06-10T16:34:33;31.80;54.80
12853;DHT22;6495;51.808;7.478;2023-06-10T16:37:21;31.80;54.50
12853;DHT22;6495;51.808;7.478;2023-06-10T16:39:52;31.70;54.30
12853;DHT22;6495;51.808;7.478;2023-06-10T16:42:22;31.70;54.50
12853;DHT22;6495;51.808;7.478;2023-06-10T16:44:52;31.70;54.40
12853;DHT22;6495;51.808;7.478;2023-06-10T16:47:21;31.60;54.40
12853;DHT22;6495;51.808;7.478;2023-06-10T16:49:50;31.60;54.50
12853;DHT22;6495;51.808;7.478;2023-06-10T16:52:18;31.60;54.60
12853;DHT22;6495;51.808;7.478;2023-06-10T16:54:47;31.70;54.60